Time;durP1;ratioP1;P1;durP2;ratioP2;P2;SDS_P1;SDS_P2;PMS_P1;PMS_P2;Temp;Humidity;BMP_temperature;BMP_pressure;BME280_temperature;BME280_humidity;BME280_pressure;Samples;Min_cycle;Max_cycle;Signal;HPM_P1;HPM_P2
2022/10/25 00:00:11;;;;;;;5.18;1.30;;;14.70;98.90;;;;;;5089229;28;20032;-78
2022/10/25 00:02:36;;;;;;;7.93;1.10;;;14.70;98.80;;;;;;5096445;28;20035;-78
2022/10/25 00:05:03;;;;;;;5.65;0.95;;;14.70;98.70;;;;;;5095360;28;20032;-78
2022/10/25 00:07:29;;;;;;;7.45;1.10;;;14.70;98.80;;;;;;5096296;28;20024;-78
2022/10/25 00:09:55;;;;;;;9.15;1.30;;;14.70;98.80;;;;;;5097746;28;20569;-78
2022/10/25 00:12:20;;;;;;;8.82;1.20;;;14.80;98.80;;;;;;5091088;28;20536;-78
2022/10/25 00:14:46;;;;;;;8.52;1.15;;;14.70;98.70;;;;;;5097275;28;20511;-78
2022/10/25 00:17:11;;;;;;;6.57;1.05;;;14.70;98.70;;;;;;5092476;28;20397;-77
2022/10/25 00:19:37;;;;;;;7.05;1.05;;;14.70;98.70;;;;;;5091479;28;20495;-78
2022/10/25 00:22:03;;;;;;;8.40;1.02;;;14.70;98.70;;;;;;5090406;28;20051;-78
2022/10/25 00:24:28;;;;;;;7.75;1.20;;;14.70;98.70;;;;;;5097927;28;20365;-78
2022/10/25 00:26:55;;;;;;;6.57;1.17;;;14.70;98.60;;;;;;5095163;28;20427;-78
2022/10/25 00:29:20;;;;;;;8.23;1.42;;;14.70;98.70;;;;;;5093406;28;20100;-77
2022/10/25 00:31:46;;;;;;;6.60;1.10;;;14.70;98.70;;;;;;5097491;28;20429;-78
2022/10/25 00:34:12;;;;;;;6.15;0.98;;;14.70;98.60;;;;;;5097118;28;20024;-78
2022/10/25 00:36:38;;;;;;;12.45;1.48;;;14.70;98.70;;;;;;5090763;28;20028;-78
2022/10/25 00:39:03;;;;;;;5.72;1.17;;;14.60;98.70;;;;;;5096303;28;20032;-77
2022/10/25 00:41:32;;;;;;;5.03;0.70;;;14.70;98.60;;;;;;5091652;28;20028;-78
2022/10/25 00:44:35;;;;;;;7.57;1.00;;;14.60;98.60;;;;;;5083931;28;20491;-78
2022/10/25 00:47:18;;;;;;;5.35;1.20;;;14.60;98.50;;;;;;5093518;28;20024;-78
2022/10/25 00:49:46;;;;;;;;;;;14.70;98.60;;;;;;5084769;28;20041;-77
2022/10/25 00:52:12;;;;;;;7.10;0.90;;;14.60;98.20;;;;;;5091947;28;19930;-78
2022/10/25 00:54:56;;;;;;;14.77;1.30;;;14.60;98.70;;;;;;5094103;28;20024;-78
2022/10/25 00:57:30;;;;;;;7.85;1.17;;;14.60;98.60;;;;;;5080062;28;20035;-78
2022/10/25 00:59:56;;;;;;;4.47;1.00;;;14.70;98.70;;;;;;5091614;28;20103;-78
2022/10/25 01:02:22;;;;;;;5.85;1.02;;;14.70;99.00;;;;;;5092712;28;20020;-78
2022/10/25 01:04:49;;;;;;;11.15;1.42;;;14.70;99.00;;;;;;5094826;28;20043;-78
2022/10/25 01:07:14;;;;;;;10.57;1.65;;;14.70;98.90;;;;;;5083611;28;20031;-78
2022/10/25 01:09:41;;;;;;;7.38;1.63;;;14.80;98.90;;;;;;5090214;28;20660;-79
2022/10/25 01:12:07;;;;;;;8.23;0.93;;;14.70;98.90;;;;;;5087798;28;20111;-78
2022/10/25 01:14:36;;;;;;;6.00;1.00;;;14.80;98.90;;;;;;5087559;28;20063;-79
2022/10/25 01:17:06;;;;;;;5.15;0.98;;;14.80;98.90;;;;;;5088327;28;20048;-78
2022/10/25 01:19:50;;;;;;;6.88;1.10;;;14.80;98.90;;;;;;5097150;28;20024;-78
2022/10/25 01:22:44;;;;;;;5.93;1.65;;;14.80;98.70;;;;;;5095843;28;20040;-79
2022/10/25 01:25:43;;;;;;;7.57;1.05;;;14.80;98.90;;;;;;5096836;28;20024;-79
2022/10/25 01:28:22;;;;;;;5.53;1.00;;;14.70;98.80;;;;;;5092224;28;20028;-79
2022/10/25 01:31:15;;;;;;;5.15;1.00;;;14.70;98.70;;;;;;5081389;28;20044;-78
2022/10/25 01:33:55;;;;;;;6.35;1.05;;;14.70;98.80;;;;;;5095510;28;20103;-78
2022/10/25 01:36:27;;;;;;;8.77;1.15;;;14.70;98.80;;;;;;5084610;28;20063;-78
2022/10/25 01:39:04;;;;;;;6.30;1.13;;;14.70;99.00;;;;;;5094840;28;20020;-78
2022/10/25 01:41:42;;;;;;;5.75;1.00;;;14.70;98.90;;;;;;5093640;28;20516;-77
2022/10/25 01:44:29;;;;;;;7.53;1.10;;;14.70;98.90;;;;;;5095800;28;20492;-78
2022/10/25 01:47:17;;;;;;;4.28;0.90;;;14.60;98.70;;;;;;5095510;28;20020;-78
2022/10/25 01:50:09;;;;;;;6.50;1.08;;;14.60;98.80;;;;;;5096888;28;20085;-78
2022/10/25 01:52:35;;;;;;;4.90;1.20;;;14.60;98.90;;;;;;5095712;28;20024;-78
2022/10/25 01:55:04;;;;;;;6.75;1.58;;;14.60;99.00;;;;;;5092722;28;20031;-78
2022/10/25 01:57:57;;;;;;;6.63;1.30;;;14.60;99.40;;;;;;5094863;28;20024;-78
2022/10/25 02:00:24;;;;;;;4.30;1.10;;;14.60;98.80;;;;;;5096600;28;20024;-77
2022/10/25 02:03:12;;;;;;;8.23;1.30;;;14.60;99.30;;;;;;5094969;28;20107;-77
2022/10/25 02:06:14;;;;;;;6.70;1.02;;;14.60;99.20;;;;;;5100899;28;20054;-75
2022/10/25 02:08:50;;;;;;;9.57;1.35;;;14.60;99.10;;;;;;5090846;28;20059;-76
2022/10/25 02:11:29;;;;;;;9.02;1.30;;;14.60;99.20;;;;;;5098977;28;20028;-78
2022/10/25 02:14:28;;;;;;;6.95;1.40;;;14.60;99.30;;;;;;5088484;28;20016;-78
2022/10/25 02:17:03;;;;;;;9.32;1.33;;;14.50;99.00;;;;;;5098742;28;20048;-77
2022/10/25 02:19:36;;;;;;;10.40;1.58;;;14.50;99.20;;;;;;5099137;28;20369;-78
2022/10/25 02:22:06;;;;;;;8.30;1.45;;;14.60;99.50;;;;;;5094534;28;20097;-77
2022/10/25 02:24:33;;;;;;;7.40;1.20;;;14.60;99.50;;;;;;5100258;28;20113;-77
2022/10/25 02:27:01;;;;;;;5.97;1.00;;;14.60;99.50;;;;;;5100151;28;20032;-76
2022/10/25 02:29:30;;;;;;;8.93;1.20;;;14.50;99.60;;;;;;5100221;28;20392;-77
2022/10/25 02:31:55;;;;;;;6.50;1.45;;;14.60;99.80;;;;;;5099765;28;20506;-78
2022/10/25 02:34:21;;;;;;;7.22;1.27;;;14.60;99.80;;;;;;5100181;28;20020;-78
2022/10/25 02:36:48;;;;;;;12.70;1.40;;;14.60;99.80;;;;;;5094587;28;20499;-78
2022/10/25 02:39:15;;;;;;;6.40;1.20;;;14.60;99.60;;;;;;5098283;28;20369;-78
2022/10/25 02:41:40;;;;;;;9.40;1.60;;;14.60;99.70;;;;;;5100010;28;20032;-78
2022/10/25 02:44:06;;;;;;;7.93;1.15;;;14.60;99.90;;;;;;5099912;28;20396;-77
2022/10/25 02:46:32;;;;;;;6.20;1.30;;;14.60;99.80;;;;;;5099583;28;20051;-77
2022/10/25 02:48:57;;;;;;;6.60;1.23;;;14.50;99.80;;;;;;5099712;28;20039;-78
2022/10/25 02:51:23;;;;;;;6.03;1.10;;;14.50;99.80;;;;;;5086433;28;20040;-77
2022/10/25 02:53:48;;;;;;;8.55;1.48;;;14.50;99.90;;;;;;5098180;28;20050;-77
2022/10/25 02:56:19;;;;;;;6.30;1.63;;;14.50;99.90;;;;;;5099238;28;20059;-77
2022/10/25 02:58:46;;;;;;;8.70;1.58;;;14.60;99.90;;;;;;5099275;28;20024;-77
2022/10/25 03:01:13;;;;;;;7.95;1.40;;;14.60;99.90;;;;;;5088733;28;20094;-80
2022/10/25 03:03:39;;;;;;;7.13;1.50;;;14.60;99.90;;;;;;5086778;28;20479;-79
2022/10/25 03:06:06;;;;;;;5.57;1.30;;;14.60;99.90;;;;;;5094407;28;20043;-79
2022/10/25 03:08:32;;;;;;;6.57;1.58;;;14.60;99.90;;;;;;5097387;28;20454;-80
2022/10/25 03:10:58;;;;;;;7.95;1.20;;;14.60;99.90;;;;;;5098847;28;20081;-79
2022/10/25 03:13:24;;;;;;;7.32;1.60;;;14.60;99.90;;;;;;5098969;28;20024;-79
2022/10/25 03:15:50;;;;;;;8.77;1.45;;;14.60;99.90;;;;;;5095255;28;20415;-79
2022/10/25 03:18:16;;;;;;;4.15;1.25;;;14.70;99.90;;;;;;5093051;28;20021;-79
2022/10/25 03:20:42;;;;;;;6.25;1.25;;;14.70;99.90;;;;;;5093255;28;20020;-79
2022/10/25 03:23:08;;;;;;;8.13;1.60;;;14.70;99.90;;;;;;5099146;28;20039;-79
2022/10/25 03:25:34;;;;;;;8.50;1.20;;;14.70;99.90;;;;;;5097954;28;20552;-80
2022/10/25 03:27:59;;;;;;;7.85;1.40;;;14.70;99.90;;;;;;5098825;28;20107;-77
2022/10/25 03:30:26;;;;;;;10.63;1.80;;;14.70;99.90;;;;;;5086877;28;20445;-77
2022/10/25 03:32:52;;;;;;;8.13;2.15;;;14.70;99.90;;;;;;5098833;28;20042;-77
2022/10/25 03:35:18;;;;;;;7.85;1.48;;;14.70;99.90;;;;;;5097244;28;20528;-77
2022/10/25 03:37:43;;;;;;;7.05;1.70;;;14.70;99.90;;;;;;5085917;28;20069;-78
2022/10/25 03:40:09;;;;;;;10.65;1.95;;;14.70;99.90;;;;;;5097367;28;20469;-78
2022/10/25 03:42:35;;;;;;;3.30;1.38;;;14.70;99.90;;;;;;5098416;28;20020;-77
2022/10/25 03:45:01;;;;;;;9.35;2.08;;;14.80;99.90;;;;;;5097367;28;20040;-78
2022/10/25 03:47:27;;;;;;;7.80;1.73;;;14.70;99.90;;;;;;5097451;28;20028;-78
2022/10/25 03:49:52;;;;;;;8.18;1.98;;;14.80;99.90;;;;;;5095722;28;20058;-78
2022/10/25 03:52:18;;;;;;;9.15;1.92;;;14.80;99.90;;;;;;5096846;28;20051;-78
2022/10/25 03:54:43;;;;;;;9.45;2.03;;;14.70;99.90;;;;;;5095464;28;20036;-78
2022/10/25 03:57:09;;;;;;;7.75;1.98;;;14.70;99.90;;;;;;5098194;28;20024;-78
2022/10/25 03:59:35;;;;;;;9.77;2.13;;;14.80;99.90;;;;;;5096739;28;20035;-78
2022/10/25 04:02:00;;;;;;;8.20;1.88;;;14.70;99.90;;;;;;5087956;28;20033;-78
2022/10/25 04:04:26;;;;;;;6.43;1.70;;;14.80;99.90;;;;;;5092020;28;20516;-76
2022/10/25 04:06:52;;;;;;;9.15;2.00;;;14.80;99.90;;;;;;5096599;28;20149;-77
2022/10/25 04:09:18;;;;;;;6.45;1.67;;;14.80;99.90;;;;;;5091520;28;20515;-77
2022/10/25 04:11:43;;;;;;;5.55;1.80;;;14.80;99.90;;;;;;5096389;28;20035;-76
2022/10/25 04:14:09;;;;;;;8.50;1.75;;;14.80;99.90;;;;;;5087762;28;20029;-77
2022/10/25 04:16:35;;;;;;;8.15;1.70;;;14.80;99.90;;;;;;5097606;28;20048;-77
2022/10/25 04:19:00;;;;;;;8.35;1.55;;;14.80;99.90;;;;;;5097588;28;20032;-77
2022/10/25 04:21:26;;;;;;;10.32;1.65;;;14.80;99.90;;;;;;5096608;28;20472;-77
2022/10/25 04:23:52;;;;;;;7.30;1.83;;;14.80;99.90;;;;;;5097753;28;20040;-78
2022/10/25 04:26:19;;;;;;;6.22;1.48;;;14.80;99.90;;;;;;5067028;28;20053;-77
2022/10/25 04:28:53;;;;;;;7.90;1.60;;;14.80;99.90;;;;;;5072316;28;20384;-78
2022/10/25 04:31:19;;;;;;;5.93;1.55;;;14.80;99.90;;;;;;5077053;28;20443;-78
2022/10/25 04:33:50;;;;;;;6.03;1.60;;;14.80;99.90;;;;;;5072873;28;20528;-78
2022/10/25 04:36:16;;;;;;;9.43;1.83;;;14.80;99.90;;;;;;5075816;28;20103;-78
2022/10/25 04:38:41;;;;;;;12.65;1.88;;;14.80;99.90;;;;;;5072824;28;20052;-77
2022/10/25 04:41:08;;;;;;;8.73;1.80;;;14.90;99.90;;;;;;5064753;28;20116;-78
2022/10/25 04:43:34;;;;;;;10.73;1.83;;;14.80;99.90;;;;;;5067785;28;20028;-77
2022/10/25 04:46:00;;;;;;;7.68;1.63;;;14.90;99.90;;;;;;5074993;28;20044;-78
2022/10/25 04:48:26;;;;;;;9.07;2.00;;;14.90;99.90;;;;;;5063247;28;20093;-77
2022/10/25 04:50:52;;;;;;;6.43;1.85;;;14.90;99.90;;;;;;5077029;28;20043;-78
2022/10/25 04:53:17;;;;;;;9.73;2.03;;;14.80;99.90;;;;;;5073787;28;20025;-77
2022/10/25 04:55:43;;;;;;;11.73;2.33;;;14.80;99.90;;;;;;5069919;28;20028;-78
2022/10/25 04:58:09;;;;;;;5.15;1.60;;;14.90;99.90;;;;;;5066543;28;20088;-78
2022/10/25 05:00:35;;;;;;;9.32;1.80;;;14.90;99.90;;;;;;5074227;28;20048;-78
2022/10/25 05:03:01;;;;;;;4.88;1.55;;;14.90;99.90;;;;;;5069143;28;20028;-78
2022/10/25 05:05:27;;;;;;;10.02;2.28;;;14.80;99.90;;;;;;5073414;28;20070;-77
2022/10/25 05:07:52;;;;;;;7.85;1.92;;;14.90;99.90;;;;;;5070863;28;20024;-78
2022/10/25 05:10:18;;;;;;;4.78;1.63;;;14.80;99.90;;;;;;5073185;28;20021;-79
2022/10/25 05:12:43;;;;;;;6.68;1.90;;;14.80;99.90;;;;;;5071705;28;20032;-79
2022/10/25 05:15:10;;;;;;;6.55;1.80;;;14.70;99.90;;;;;;5066233;28;20023;-79
2022/10/25 05:17:35;;;;;;;8.00;1.98;;;14.70;99.90;;;;;;5077088;28;20040;-80
2022/10/25 05:20:01;;;;;;;6.88;1.73;;;14.70;99.90;;;;;;5077205;28;20516;-80
2022/10/25 05:22:28;;;;;;;6.35;1.88;;;14.60;99.90;;;;;;5077035;28;20485;-80
2022/10/25 05:24:53;;;;;;;4.40;1.58;;;14.60;99.90;;;;;;5073617;28;20091;-80
2022/10/25 05:27:19;;;;;;;4.95;1.60;;;14.60;99.90;;;;;;5071807;28;20024;-80
2022/10/25 05:29:45;;;;;;;3.83;1.80;;;14.60;99.90;;;;;;5076002;28;20033;-79
2022/10/25 05:32:11;;;;;;;4.10;2.00;;;14.50;99.90;;;;;;5073177;28;20025;-78
2022/10/25 05:34:37;;;;;;;4.18;1.63;;;14.50;99.90;;;;;;5078590;28;20032;-77
2022/10/25 05:37:02;;;;;;;4.93;1.80;;;14.50;99.90;;;;;;5086389;28;20393;-77
2022/10/25 05:39:28;;;;;;;4.55;2.05;;;14.50;99.90;;;;;;5078622;28;20021;-77
2022/10/25 05:41:53;;;;;;;6.43;1.90;;;14.50;99.90;;;;;;5079691;28;20393;-77
2022/10/25 05:44:19;;;;;;;6.40;1.70;;;14.50;99.90;;;;;;5070111;28;20020;-76
2022/10/25 05:46:45;;;;;;;2.67;1.65;;;14.50;99.90;;;;;;5068648;28;20032;-77
2022/10/25 05:49:11;;;;;;;3.13;1.38;;;14.50;99.90;;;;;;5077609;28;20405;-77
2022/10/25 05:51:37;;;;;;;3.65;1.90;;;14.50;99.90;;;;;;5071968;28;20040;-78
2022/10/25 05:54:10;;;;;;;6.10;1.95;;;14.50;99.90;;;;;;5070999;28;20035;-78
2022/10/25 05:56:36;;;;;;;2.63;1.53;;;14.40;99.90;;;;;;5081047;28;20027;-78
2022/10/25 05:59:09;;;;;;;5.43;2.00;;;14.40;99.90;;;;;;5080453;28;20024;-77
2022/10/25 06:01:36;;;;;;;3.83;1.50;;;14.40;99.90;;;;;;5080330;28;20377;-76
2022/10/25 06:04:02;;;;;;;2.63;1.42;;;14.40;99.90;;;;;;5080388;28;20039;-76
2022/10/25 06:06:28;;;;;;;3.95;1.50;;;14.40;99.90;;;;;;5080417;28;20032;-76
2022/10/25 06:08:58;;;;;;;4.55;1.65;;;14.50;99.90;;;;;;5079181;28;20480;-76
2022/10/25 06:11:25;;;;;;;3.00;1.70;;;14.40;99.90;;;;;;5079043;28;20032;-76
2022/10/25 06:13:51;;;;;;;2.13;1.25;;;14.40;99.90;;;;;;5080337;28;20021;-75
2022/10/25 06:16:18;;;;;;;2.70;1.60;;;14.40;99.90;;;;;;5079260;28;20124;-76
2022/10/25 06:18:44;;;;;;;2.55;1.50;;;14.50;99.90;;;;;;5077266;28;20052;-76
2022/10/25 06:21:12;;;;;;;3.25;1.90;;;14.50;99.90;;;;;;5078955;28;20066;-76
2022/10/25 06:23:38;;;;;;;3.35;1.77;;;14.50;99.90;;;;;;5077841;28;20021;-76
2022/10/25 06:26:10;;;;;;;4.75;2.30;;;14.50;99.90;;;;;;5078526;28;20047;-78
2022/10/25 06:28:36;;;;;;;3.78;2.17;;;14.60;99.90;;;;;;5079102;28;20025;-78
2022/10/25 06:31:08;;;;;;;4.72;2.70;;;14.50;99.90;;;;;;5078608;28;20017;-80
2022/10/25 06:33:33;;;;;;;5.25;2.78;;;14.60;99.90;;;;;;5080048;28;20027;-81
2022/10/25 06:36:00;;;;;;;5.20;2.50;;;14.60;99.90;;;;;;5077041;28;20020;-80
2022/10/25 06:38:27;;;;;;;4.97;2.58;;;14.60;99.90;;;;;;5078526;28;20080;-80
2022/10/25 06:41:10;;;;;;;4.20;2.80;;;14.70;99.90;;;;;;5078519;28;20388;-80
2022/10/25 06:43:37;;;;;;;4.37;2.40;;;14.70;99.90;;;;;;5077917;28;20025;-78
2022/10/25 06:46:18;;;;;;;4.47;2.35;;;14.70;99.90;;;;;;5079507;28;20047;-80
2022/10/25 06:48:44;;;;;;;4.68;2.30;;;14.70;99.90;;;;;;5079390;28;20386;-80
2022/10/25 06:51:09;;;;;;;4.68;2.38;;;14.60;99.90;;;;;;5079125;28;20043;-81
2022/10/25 06:53:36;;;;;;;3.88;1.88;;;14.60;99.90;;;;;;5076316;28;20370;-79
2022/10/25 06:56:03;;;;;;;4.18;2.50;;;14.60;99.90;;;;;;5078012;28;20115;-80
2022/10/25 06:58:30;;;;;;;3.38;1.98;;;14.60;99.90;;;;;;5077825;28;20044;-80
2022/10/25 07:01:07;;;;;;;3.67;2.03;;;14.70;99.90;;;;;;5078251;28;20021;-80
2022/10/25 07:03:34;;;;;;;4.63;2.10;;;14.70;99.90;;;;;;5078194;28;20048;-80
2022/10/25 07:06:08;;;;;;;4.93;2.42;;;14.70;99.90;;;;;;5079474;28;20025;-82
2022/10/25 07:08:35;;;;;;;5.43;2.13;;;14.70;99.90;;;;;;5076363;28;20050;-70
2022/10/25 07:11:02;;;;;;;4.18;2.30;;;14.70;99.90;;;;;;5089532;28;20048;-70
2022/10/25 07:13:28;;;;;;;4.22;2.35;;;14.70;99.90;;;;;;5083090;28;20028;-70
2022/10/25 07:16:03;;;;;;;6.25;2.60;;;14.80;99.90;;;;;;5078574;28;20036;-70
2022/10/25 07:18:29;;;;;;;7.72;2.63;;;14.80;99.90;;;;;;5087426;28;20029;-71
2022/10/25 07:20:59;;;;;;;5.93;2.50;;;14.80;99.90;;;;;;5078589;28;20429;-72
2022/10/25 07:23:26;;;;;;;5.60;2.63;;;14.80;99.90;;;;;;5077204;28;20036;-72
2022/10/25 07:25:52;;;;;;;6.60;2.60;;;14.90;99.90;;;;;;5084687;28;20099;-72
2022/10/25 07:28:17;;;;;;;5.03;2.50;;;14.90;99.90;;;;;;5077587;28;20051;-72
2022/10/25 07:30:45;;;;;;;6.25;2.60;;;14.90;99.90;;;;;;5078397;28;20021;-72
2022/10/25 07:33:12;;;;;;;7.03;2.42;;;15.00;99.90;;;;;;5070276;28;20020;-71
2022/10/25 07:35:37;;;;;;;6.45;2.67;;;15.00;99.90;;;;;;5078760;28;20039;-70
2022/10/25 07:38:03;;;;;;;5.38;2.10;;;15.00;99.90;;;;;;5078657;28;20024;-70
2022/10/25 07:40:29;;;;;;;5.13;2.17;;;15.00;99.90;;;;;;5078178;28;20029;-70
2022/10/25 07:42:54;;;;;;;6.60;2.13;;;15.00;99.90;;;;;;5088742;28;20031;-71
2022/10/25 07:45:20;;;;;;;5.78;2.28;;;15.00;99.90;;;;;;5080027;28;20090;-70
2022/10/25 07:47:45;;;;;;;5.47;2.13;;;15.10;99.90;;;;;;5078584;28;20103;-72
2022/10/25 07:50:11;;;;;;;6.63;2.50;;;15.10;99.90;;;;;;5076955;28;20020;-72
2022/10/25 07:52:36;;;;;;;5.78;2.17;;;15.20;99.90;;;;;;5077415;28;20040;-72
2022/10/25 07:55:02;;;;;;;4.70;2.00;;;15.10;99.90;;;;;;5076023;28;20052;-72
2022/10/25 07:57:28;;;;;;;5.30;2.17;;;15.10;99.90;;;;;;5078513;28;20052;-71
2022/10/25 07:59:53;;;;;;;7.22;2.30;;;15.20;99.90;;;;;;5078078;28;20031;-71
2022/10/25 08:02:19;;;;;;;3.90;1.67;;;15.20;99.90;;;;;;5077176;28;20402;-72
2022/10/25 08:04:45;;;;;;;6.15;2.20;;;15.20;99.90;;;;;;5077869;28;20040;-71
2022/10/25 08:07:10;;;;;;;8.23;2.08;;;15.20;99.90;;;;;;5080383;28;20032;-72
2022/10/25 08:09:36;;;;;;;5.70;2.35;;;15.20;99.90;;;;;;5079090;28;20477;-72
2022/10/25 08:12:01;;;;;;;7.53;2.20;;;15.20;99.90;;;;;;5078241;28;20032;-72
2022/10/25 08:14:27;;;;;;;3.92;1.80;;;15.20;99.90;;;;;;5076419;28;20025;-71
2022/10/25 08:16:53;;;;;;;4.70;2.10;;;15.30;99.90;;;;;;5086433;28;20584;-72
2022/10/25 08:19:18;;;;;;;3.58;1.75;;;15.30;99.90;;;;;;5080180;28;20024;-72
2022/10/25 08:21:45;;;;;;;4.72;1.98;;;15.40;99.90;;;;;;5078097;28;20023;-70
2022/10/25 08:24:11;;;;;;;6.30;2.22;;;15.40;99.90;;;;;;5077238;28;20025;-70
2022/10/25 08:26:36;;;;;;;7.43;2.20;;;15.50;99.90;;;;;;5077859;28;20084;-67
2022/10/25 08:29:02;;;;;;;4.53;2.22;;;15.50;99.90;;;;;;5076191;28;20020;-77
2022/10/25 08:31:27;;;;;;;6.15;2.53;;;15.50;99.90;;;;;;5077752;28;20404;-80
2022/10/25 08:33:53;;;;;;;5.40;2.38;;;15.50;99.90;;;;;;5077392;28;20039;-72
2022/10/25 08:36:19;;;;;;;6.35;2.28;;;15.60;99.90;;;;;;5077910;28;20016;-71
2022/10/25 08:38:46;;;;;;;6.13;2.20;;;15.60;99.90;;;;;;5077469;28;20025;-71
2022/10/25 08:41:24;;;;;;;3.47;1.88;;;15.60;99.90;;;;;;5077374;28;20025;-73
2022/10/25 08:44:11;;;;;;;3.60;1.80;;;15.60;99.90;;;;;;5077301;28;20016;-71
2022/10/25 08:47:00;;;;;;;4.38;2.10;;;15.60;99.90;;;;;;5075913;28;20025;-72
2022/10/25 08:50:03;;;;;;;6.30;2.08;;;15.60;99.90;;;;;;5076870;28;20089;-72
2022/10/25 08:52:44;;;;;;;5.57;2.03;;;15.60;99.90;;;;;;5077429;28;20033;-72
2022/10/25 08:55:18;;;;;;;6.53;2.15;;;15.60;99.90;;;;;;5075918;28;20020;-73
2022/10/25 08:57:47;;;;;;;4.68;2.33;;;15.60;99.90;;;;;;5077557;28;20025;-73
2022/10/25 09:00:21;;;;;;;6.55;2.55;;;15.70;99.90;;;;;;5077053;28;20103;-73
2022/10/25 09:02:58;;;;;;;5.70;2.30;;;15.70;99.90;;;;;;5076007;28;20404;-73
2022/10/25 09:05:38;;;;;;;6.93;2.42;;;15.70;99.90;;;;;;5075316;28;20031;-77
2022/10/25 09:08:22;;;;;;;8.25;2.70;;;15.70;99.90;;;;;;5077091;28;20036;-73
2022/10/25 09:10:59;;;;;;;5.18;1.80;;;15.70;99.90;;;;;;5076705;28;20039;-75
2022/10/25 09:13:39;;;;;;;3.65;2.20;;;15.70;99.90;;;;;;5075892;28;20075;-74
2022/10/25 09:16:18;;;;;;;5.53;2.35;;;15.80;99.90;;;;;;5078707;28;20048;-75
2022/10/25 09:18:56;;;;;;;6.03;1.73;;;15.80;99.90;;;;;;5082659;28;20058;-75
2022/10/25 09:21:28;;;;;;;6.18;2.00;;;15.80;99.90;;;;;;5075235;28;20459;-72
2022/10/25 09:24:00;;;;;;;3.20;1.83;;;15.80;99.90;;;;;;5075133;28;20028;-74
2022/10/25 09:26:40;;;;;;;6.82;2.00;;;15.80;99.90;;;;;;5076175;28;20021;-74
2022/10/25 09:29:10;;;;;;;5.00;1.73;;;15.80;99.90;;;;;;5076428;28;20024;-73
2022/10/25 09:31:40;;;;;;;2.55;1.52;;;15.80;99.90;;;;;;5074968;28;20024;-74
2022/10/25 09:34:09;;;;;;;2.67;1.40;;;15.80;99.90;;;;;;5076517;28;20025;-73
2022/10/25 09:36:45;;;;;;;3.50;1.58;;;15.80;99.90;;;;;;5075055;28;20031;-74
2022/10/25 09:39:26;;;;;;;4.93;1.30;;;15.70;99.90;;;;;;5076038;28;20029;-74
2022/10/25 09:41:53;;;;;;;3.05;1.58;;;15.80;99.90;;;;;;5076311;28;20025;-74
2022/10/25 09:44:39;;;;;;;5.38;1.50;;;15.80;99.90;;;;;;5076349;28;20477;-74
2022/10/25 09:47:45;;;;;;;3.50;1.55;;;15.70;99.90;;;;;;5076159;28;20024;-74
2022/10/25 09:50:42;;;;;;;6.25;1.50;;;15.80;99.90;;;;;;5056330;28;20040;-74
2022/10/25 09:53:16;;;;;;;2.03;1.27;;;15.90;99.90;;;;;;5067690;28;20525;-75
2022/10/25 09:55:59;;;;;;;2.17;1.10;;;15.90;99.90;;;;;;5075907;28;20485;-76
2022/10/25 09:58:27;;;;;;;5.27;1.90;;;16.00;99.90;;;;;;5075458;28;20040;-75
2022/10/25 10:00:57;;;;;;;5.40;1.38;;;16.00;99.90;;;;;;5076041;28;20287;-74
2022/10/25 10:03:28;;;;;;;5.88;1.73;;;16.10;99.90;;;;;;5076042;28;20100;-75
2022/10/25 10:05:59;;;;;;;3.90;1.40;;;16.10;99.90;;;;;;5074251;28;20438;-75
2022/10/25 10:08:26;;;;;;;3.33;1.42;;;16.20;99.90;;;;;;5075950;28;20025;-72
2022/10/25 10:10:53;;;;;;;5.07;1.52;;;16.20;99.90;;;;;;5075756;28;20051;-72
2022/10/25 10:13:33;;;;;;;3.05;1.45;;;16.20;99.90;;;;;;5075842;28;20039;-72
2022/10/25 10:16:03;;;;;;;3.08;1.30;;;16.20;99.90;;;;;;5076903;28;20036;-73
2022/10/25 10:18:33;;;;;;;2.58;1.40;;;16.30;99.90;;;;;;5088007;28;20161;-72
2022/10/25 10:21:01;;;;;;;2.83;1.25;;;16.20;99.90;;;;;;5079311;28;20025;-73
2022/10/25 10:23:30;;;;;;;2.72;1.20;;;16.30;99.90;;;;;;5079729;28;20035;-73
2022/10/25 10:26:00;;;;;;;5.22;2.05;;;16.40;99.90;;;;;;5079197;28;20017;-73
2022/10/25 10:28:26;;;;;;;5.75;1.77;;;16.50;99.90;;;;;;5079251;28;20060;-74
2022/10/25 10:30:55;;;;;;;4.43;2.10;;;16.50;99.90;;;;;;5064809;28;20027;-74
2022/10/25 10:33:21;;;;;;;3.25;1.95;;;16.60;99.90;;;;;;5079125;28;20032;-73
2022/10/25 10:35:50;;;;;;;4.63;1.70;;;16.60;99.90;;;;;;5079217;28;20439;-74
2022/10/25 10:38:19;;;;;;;3.90;1.90;;;16.60;99.90;;;;;;5079209;28;20020;-73
2022/10/25 10:40:44;;;;;;;2.60;1.63;;;16.60;99.90;;;;;;5078652;28;20017;-73
2022/10/25 10:43:30;;;;;;;2.17;1.40;;;16.70;99.90;;;;;;5079359;28;20424;-73
2022/10/25 10:46:07;;;;;;;3.53;1.67;;;16.70;99.90;;;;;;5078327;28;20063;-73
2022/10/25 10:48:37;;;;;;;3.58;1.48;;;16.80;99.90;;;;;;5078677;28;20028;-74
2022/10/25 10:51:03;;;;;;;4.25;1.55;;;16.80;99.90;;;;;;5079528;28;20017;-73
2022/10/25 10:53:31;;;;;;;5.07;1.50;;;16.90;99.90;;;;;;5076778;28;20082;-74
2022/10/25 10:56:06;;;;;;;2.55;1.40;;;16.90;99.90;;;;;;5079220;28;20551;-73
2022/10/25 10:58:38;;;;;;;2.95;1.40;;;16.90;99.90;;;;;;5079685;28;20028;-73
2022/10/25 11:01:06;;;;;;;2.88;1.20;;;16.90;99.90;;;;;;5079175;28;20023;-74
2022/10/25 11:03:43;;;;;;;2.72;1.05;;;16.90;99.90;;;;;;5079452;28;20025;-73
2022/10/25 11:06:28;;;;;;;2.90;1.17;;;16.90;99.90;;;;;;5077739;28;20028;-73
2022/10/25 11:09:11;;;;;;;2.53;0.90;;;16.90;99.90;;;;;;5077598;28;20033;-73
2022/10/25 11:11:37;;;;;;;2.03;1.00;;;17.00;99.90;;;;;;5077532;28;20082;-75
2022/10/25 11:14:11;;;;;;;3.60;1.08;;;17.00;99.90;;;;;;5077686;28;20040;-74
2022/10/25 11:16:58;;;;;;;2.17;1.10;;;17.00;99.90;;;;;;5083620;28;20090;-72
2022/10/25 11:19:39;;;;;;;2.67;1.10;;;17.00;99.90;;;;;;5078394;28;20035;-75
2022/10/25 11:22:29;;;;;;;5.38;1.00;;;17.10;99.80;;;;;;5078739;28;20355;-71
2022/10/25 11:25:18;;;;;;;2.42;0.80;;;17.10;99.90;;;;;;5078526;28;20432;-71
2022/10/25 11:27:59;;;;;;;2.30;1.20;;;17.20;99.80;;;;;;5066229;28;20016;-72
2022/10/25 11:30:53;;;;;;;1.92;0.90;;;17.30;99.90;;;;;;5077544;28;20036;-73
2022/10/25 11:33:47;;;;;;;3.13;1.00;;;17.30;99.40;;;;;;5076205;28;20040;-73
2022/10/25 11:36:20;;;;;;;2.30;0.93;;;17.40;99.80;;;;;;5078585;28;20025;-72
2022/10/25 11:38:49;;;;;;;2.05;0.68;;;17.40;99.50;;;;;;5078594;28;20024;-74
2022/10/25 11:41:36;;;;;;;4.63;0.90;;;17.50;99.00;;;;;;5077293;28;20059;-76
2022/10/25 11:44:18;;;;;;;1.17;0.68;;;17.50;98.80;;;;;;5078828;28;20043;-73
2022/10/25 11:47:15;;;;;;;3.55;0.90;;;17.60;98.80;;;;;;5078268;28;20551;-73
2022/10/25 11:50:00;;;;;;;3.20;0.85;;;17.70;98.70;;;;;;5078566;28;20056;-77
2022/10/25 11:52:43;;;;;;;1.08;0.60;;;17.70;98.20;;;;;;5078341;28;20032;-79
2022/10/25 11:55:14;;;;;;;;;;;17.70;98.10;;;;;;5076209;28;20028;-76
2022/10/25 11:57:43;;;;;;;1.17;0.52;;;17.80;98.70;;;;;;5078336;28;19905;-74
2022/10/25 12:00:18;;;;;;;3.40;0.90;;;17.80;97.80;;;;;;5077908;28;20025;-73
2022/10/25 12:02:48;;;;;;;2.35;1.10;;;17.80;97.80;;;;;;5075609;28;20033;-74
2022/10/25 12:05:29;;;;;;;2.28;0.90;;;17.90;97.50;;;;;;5076671;28;20123;-76
2022/10/25 12:08:32;;;;;;;3.00;1.00;;;17.90;97.50;;;;;;5076685;28;20499;-74
2022/10/25 12:11:09;;;;;;;1.80;0.80;;;17.90;97.70;;;;;;5076209;28;20032;-73
2022/10/25 12:13:40;;;;;;;2.85;0.90;;;17.90;97.50;;;;;;5077687;28;20036;-72
2022/10/25 12:16:13;;;;;;;2.35;1.00;;;18.00;96.90;;;;;;5079539;28;20045;-74
2022/10/25 12:18:46;;;;;;;2.23;0.97;;;17.90;96.80;;;;;;5082309;28;20024;-67
2022/10/25 12:21:27;;;;;;;3.00;1.00;;;18.00;96.70;;;;;;5074917;28;20291;-67
2022/10/25 12:23:54;;;;;;;2.60;1.20;;;17.90;97.00;;;;;;5076873;28;20024;-67
2022/10/25 12:26:26;;;;;;;2.35;1.20;;;17.90;96.60;;;;;;5077408;28;20030;-69
2022/10/25 12:28:52;;;;;;;4.32;1.75;;;18.00;97.10;;;;;;5077038;28;20052;-69
2022/10/25 12:31:41;;;;;;;3.05;1.58;;;18.00;96.50;;;;;;5077098;28;20021;-68
2022/10/25 12:34:25;;;;;;;3.10;1.67;;;18.00;96.90;;;;;;5076911;28;20112;-69
2022/10/25 12:36:59;;;;;;;3.55;1.50;;;18.00;96.90;;;;;;5077042;28;20432;-68
2022/10/25 12:39:45;;;;;;;2.08;1.33;;;18.10;96.60;;;;;;5074620;28;20044;-68
2022/10/25 12:42:24;;;;;;;4.03;1.50;;;18.10;97.10;;;;;;5076881;28;20112;-68
2022/10/25 12:45:22;;;;;;;2.40;1.55;;;18.10;96.90;;;;;;5077033;28;20028;-69
2022/10/25 12:48:10;;;;;;;3.08;1.30;;;18.10;96.40;;;;;;5076828;28;20115;-69
2022/10/25 12:51:10;;;;;;;3.65;1.60;;;18.10;96.60;;;;;;5077136;28;20020;-70
2022/10/25 12:54:03;;;;;;;2.97;1.55;;;18.10;96.90;;;;;;5076109;28;20021;-67
2022/10/25 12:56:53;;;;;;;2.83;1.30;;;18.10;96.60;;;;;;5074207;28;20020;-67
2022/10/25 12:59:27;;;;;;;3.83;1.70;;;18.10;96.60;;;;;;5075366;28;20027;-69
2022/10/25 13:02:31;;;;;;;2.60;1.40;;;18.20;96.60;;;;;;5076995;28;20032;-69
2022/10/25 13:05:21;;;;;;;5.82;1.48;;;18.20;96.80;;;;;;5077142;28;20027;-70
2022/10/25 13:07:48;;;;;;;2.83;1.60;;;18.30;96.80;;;;;;5077005;28;20170;-67
2022/10/25 13:10:21;;;;;;;4.60;1.65;;;18.30;96.10;;;;;;5077194;28;20433;-68